sensor_id;sensor_type;location;lat;lon;timestamp;pressure;altitude;pressure_sealevel;temperature;humidity
2268;BME280;11052;43.338;25.502;2023-12-07T00:02:23;100574.75;;;3.31;100.00
2268;BME280;11052;43.338;25.502;2023-12-07T00:04:50;100573.91;;;3.32;100.00
2268;BME280;11052;43.338;25.502;2023-12-07T00:07:19;100569.63;;;3.37;100.00
2268;BME280;11052;43.338;25.502;2023-12-07T00:09:46;100578.16;;;3.28;100.00
2268;BME280;11052;43.338;25.502;2023-12-07T00:12:13;100578.16;;;3.33;100.00
2268;BME280;11052;43.338;25.502;2023-12-07T00:14:40;100577.31;;;3.37;100.00
2268;BME280;11052;43.338;25.502;2023-12-07T00:17:08;100581.56;;;3.32;100.00
2268;BME280;11052;43.338;25.502;2023-12-07T00:19:35;100587.56;;;3.33;100.00
2268;BME280;11052;43.338;25.502;2023-12-07T00:22:01;100590.13;;;3.36;100.00
2268;BME280;11052;43.338;25.502;2023-12-07T00:24:30;100590.97;;;3.30;100.00
2268;BME280;11052;43.338;25.502;2023-12-07T00:26:57;100587.56;;;3.34;100.00
2268;BME280;11052;43.338;25.502;2023-12-07T00:29:24;100589.28;;;3.37;100.00
2268;BME280;11052;43.338;25.502;2023-12-07T00:31:51;100591.84;;;3.38;100.00
2268;BME280;11052;43.338;25.502;2023-12-07T00:34:18;100591.84;;;3.40;100.00
2268;BME280;11052;43.338;25.502;2023-12-07T00:36:46;100596.97;;;3.38;100.00
2268;BME280;11052;43.338;25.502;2023-12-07T00:39:13;100594.41;;;3.38;100.00
2268;BME280;11052;43.338;25.502;2023-12-07T00:41:41;100596.13;;;3.41;100.00
2268;BME280;11052;43.338;25.502;2023-12-07T00:44:08;100588.44;;;3.42;100.00
2268;BME280;11052;43.338;25.502;2023-12-07T00:46:36;100591.03;;;3.45;100.00
2268;BME280;11052;43.338;25.502;2023-12-07T00:49:03;100604.69;;;3.46;100.00
2268;BME280;11052;43.338;25.502;2023-12-07T00:51:30;100603.81;;;3.41;100.00
2268;BME280;11052;43.338;25.502;2023-12-07T00:53:57;100603.81;;;3.42;100.00
2268;BME280;11052;43.338;25.502;2023-12-07T00:56:25;100601.28;;;3.45;100.00
2268;BME280;11052;43.338;25.502;2023-12-07T00:58:53;100597.84;;;3.42;100.00
2268;BME280;11052;43.338;25.502;2023-12-07T01:01:21;100603.81;;;3.42;100.00
2268;BME280;11052;43.338;25.502;2023-12-07T01:03:48;100607.25;;;3.43;100.00
2268;BME280;11052;43.338;25.502;2023-12-07T01:06:16;100606.38;;;3.48;100.00
2268;BME280;11052;43.338;25.502;2023-12-07T01:08:43;100601.28;;;3.44;100.00
2268;BME280;11052;43.338;25.502;2023-12-07T01:11:10;100596.97;;;3.49;100.00
2268;BME280;11052;43.338;25.502;2023-12-07T01:13:37;100596.13;;;3.48;100.00
2268;BME280;11052;43.338;25.502;2023-12-07T01:16:06;100600.41;;;3.48;100.00
2268;BME280;11052;43.338;25.502;2023-12-07T01:18:34;100596.13;;;3.47;100.00
2268;BME280;11052;43.338;25.502;2023-12-07T01:21:01;100595.28;;;3.48;100.00
2268;BME280;11052;43.338;25.502;2023-12-07T01:23:28;100594.41;;;3.47;100.00
2268;BME280;11052;43.338;25.502;2023-12-07T01:25:56;100597.84;;;3.45;100.00
2268;BME280;11052;43.338;25.502;2023-12-07T01:28:23;100592.72;;;3.40;100.00
2268;BME280;11052;43.338;25.502;2023-12-07T01:30:50;100600.44;;;3.46;100.00
2268;BME280;11052;43.338;25.502;2023-12-07T01:33:19;100594.41;;;3.47;100.00
2268;BME280;11052;43.338;25.502;2023-12-07T01:35:47;100598.69;;;3.42;100.00
2268;BME280;11052;43.338;25.502;2023-12-07T01:38:14;100599.56;;;3.44;100.00
2268;BME280;11052;43.338;25.502;2023-12-07T01:40:41;100595.28;;;3.40;100.00
2268;BME280;11052;43.338;25.502;2023-12-07T01:43:09;100595.28;;;3.40;100.00
2268;BME280;11052;43.338;25.502;2023-12-07T01:45:36;100591.88;;;3.41;100.00
2268;BME280;11052;43.338;25.502;2023-12-07T01:48:03;100592.72;;;3.42;100.00
2268;BME280;11052;43.338;25.502;2023-12-07T01:50:33;100594.41;;;3.47;100.00
2268;BME280;11052;43.338;25.502;2023-12-07T01:53:02;100596.13;;;3.41;100.00
2268;BME280;11052;43.338;25.502;2023-12-07T01:55:31;100595.28;;;3.40;100.00
2268;BME280;11052;43.338;25.502;2023-12-07T01:57:59;100596.97;;;3.40;100.00
2268;BME280;11052;43.338;25.502;2023-12-07T02:00:27;100597.84;;;3.42;100.00
2268;BME280;11052;43.338;25.502;2023-12-07T02:02:55;100597.84;;;3.39;100.00
2268;BME280;11052;43.338;25.502;2023-12-07T02:05:22;100605.50;;;3.36;100.00
2268;BME280;11052;43.338;25.502;2023-12-07T02:07:52;100598.69;;;3.39;100.00
2268;BME280;11052;43.338;25.502;2023-12-07T02:10:20;100596.13;;;3.39;100.00
2268;BME280;11052;43.338;25.502;2023-12-07T02:12:48;100604.66;;;3.35;100.00
2268;BME280;11052;43.338;25.502;2023-12-07T02:15:16;100599.53;;;3.35;100.00
2268;BME280;11052;43.338;25.502;2023-12-07T02:17:49;100608.09;;;3.39;100.00
2268;BME280;11052;43.338;25.502;2023-12-07T02:20:23;100597.81;;;3.34;100.00
2268;BME280;11052;43.338;25.502;2023-12-07T02:22:55;100599.50;;;3.32;100.00
2268;BME280;11052;43.338;25.502;2023-12-07T02:25:29;100604.69;;;3.43;100.00
2268;BME280;11052;43.338;25.502;2023-12-07T02:27:58;100604.69;;;3.43;100.00
2268;BME280;11052;43.338;25.502;2023-12-07T02:30:25;100598.69;;;3.41;100.00
2268;BME280;11052;43.338;25.502;2023-12-07T02:32:53;100602.13;;;3.43;100.00
2268;BME280;11052;43.338;25.502;2023-12-07T02:35:20;100602.97;;;3.43;100.00
2268;BME280;11052;43.338;25.502;2023-12-07T02:37:49;100599.56;;;3.44;100.00
2268;BME280;11052;43.338;25.502;2023-12-07T02:40:18;100608.09;;;3.48;100.00
2268;BME280;11052;43.338;25.502;2023-12-07T02:42:47;100606.38;;;3.47;100.00
2268;BME280;11052;43.338;25.502;2023-12-07T02:45:17;100608.13;;;3.46;100.00
2268;BME280;11052;43.338;25.502;2023-12-07T02:47:44;100602.97;;;3.51;100.00
2268;BME280;11052;43.338;25.502;2023-12-07T02:50:12;100609.81;;;3.52;100.00
2268;BME280;11052;43.338;25.502;2023-12-07T02:52:40;100606.41;;;3.53;100.00
2268;BME280;11052;43.338;25.502;2023-12-07T02:55:07;100608.94;;;3.48;100.00
2268;BME280;11052;43.338;25.502;2023-12-07T02:57:35;100604.69;;;3.50;100.00
2268;BME280;11052;43.338;25.502;2023-12-07T03:00:03;100606.41;;;3.53;100.00
2268;BME280;11052;43.338;25.502;2023-12-07T03:02:34;100608.97;;;3.54;100.00
2268;BME280;11052;43.338;25.502;2023-12-07T03:05:02;100611.53;;;3.54;100.00
2268;BME280;11052;43.338;25.502;2023-12-07T03:07:29;100605.56;;;3.55;100.00
2268;BME280;11052;43.338;25.502;2023-12-07T03:09:57;100617.50;;;3.53;100.00
2268;BME280;11052;43.338;25.502;2023-12-07T03:12:24;100609.81;;;3.56;100.00
2268;BME280;11052;43.338;25.502;2023-12-07T03:14:51;100617.50;;;3.56;100.00
2268;BME280;11052;43.338;25.502;2023-12-07T03:17:18;100614.97;;;3.59;100.00
2268;BME280;11052;43.338;25.502;2023-12-07T03:19:47;100621.81;;;3.62;100.00
2268;BME280;11052;43.338;25.502;2023-12-07T03:22:14;100625.22;;;3.64;100.00
2268;BME280;11052;43.338;25.502;2023-12-07T03:24:45;100631.22;;;3.65;100.00
2268;BME280;11052;43.338;25.502;2023-12-07T03:27:13;100632.06;;;3.63;100.00
2268;BME280;11052;43.338;25.502;2023-12-07T03:29:40;100628.66;;;3.65;100.00
2268;BME280;11052;43.338;25.502;2023-12-07T03:32:07;100629.50;;;3.67;100.00
2268;BME280;11052;43.338;25.502;2023-12-07T03:34:35;100636.34;;;3.66;100.00
2268;BME280;11052;43.338;25.502;2023-12-07T03:37:04;100635.50;;;3.70;100.00
2268;BME280;11052;43.338;25.502;2023-12-07T03:39:32;100635.50;;;3.72;100.00
2268;BME280;11052;43.338;25.502;2023-12-07T03:41:59;100626.97;;;3.70;100.00
2268;BME280;11052;43.338;25.502;2023-12-07T03:44:27;100632.94;;;3.70;100.00
2268;BME280;11052;43.338;25.502;2023-12-07T03:46:54;100632.94;;;3.73;100.00
2268;BME280;11052;43.338;25.502;2023-12-07T03:49:22;100634.66;;;3.70;100.00
2268;BME280;11052;43.338;25.502;2023-12-07T03:51:49;100634.66;;;3.68;100.00
2268;BME280;11052;43.338;25.502;2023-12-07T03:54:18;100635.50;;;3.67;100.00
2268;BME280;11052;43.338;25.502;2023-12-07T03:56:45;100638.06;;;3.69;100.00
2268;BME280;11052;43.338;25.502;2023-12-07T03:59:13;100629.53;;;3.70;100.00
2268;BME280;11052;43.338;25.502;2023-12-07T04:01:40;100632.09;;;3.71;100.00
2268;BME280;11052;43.338;25.502;2023-12-07T04:04:08;100632.94;;;3.73;100.00
2268;BME280;11052;43.338;25.502;2023-12-07T04:06:35;100632.09;;;3.71;100.00
2268;BME280;11052;43.338;25.502;2023-12-07T04:09:02;100626.97;;;3.70;100.00
2268;BME280;11052;43.338;25.502;2023-12-07T04:11:31;100625.25;;;3.69;100.00
2268;BME280;11052;43.338;25.502;2023-12-07T04:13:58;100627.81;;;3.73;100.00
2268;BME280;11052;43.338;25.502;2023-12-07T04:16:26;100626.97;;;3.76;100.00
2268;BME280;11052;43.338;25.502;2023-12-07T04:18:53;100626.13;;;3.77;100.00
2268;BME280;11052;43.338;25.502;2023-12-07T04:21:20;100628.69;;;3.77;100.00
2268;BME280;11052;43.338;25.502;2023-12-07T04:23:48;100623.56;;;3.74;100.00
2268;BME280;11052;43.338;25.502;2023-12-07T04:26:15;100624.41;;;3.76;100.00
2268;BME280;11052;43.338;25.502;2023-12-07T04:28:43;100628.69;;;3.75;100.00
2268;BME280;11052;43.338;25.502;2023-12-07T04:31:11;100637.25;;;3.77;100.00
2268;BME280;11052;43.338;25.502;2023-12-07T04:33:38;100633.81;;;3.77;100.00
2268;BME280;11052;43.338;25.502;2023-12-07T04:36:06;100635.53;;;3.76;100.00
2268;BME280;11052;43.338;25.502;2023-12-07T04:38:33;100638.94;;;3.71;100.00
2268;BME280;11052;43.338;25.502;2023-12-07T04:41:01;100644.06;;;3.74;100.00
2268;BME280;11052;43.338;25.502;2023-12-07T04:43:28;100649.13;;;3.57;100.00
2268;BME280;11052;43.338;25.502;2023-12-07T04:45:57;100648.31;;;3.72;100.00
2268;BME280;11052;43.338;25.502;2023-12-07T04:48:25;100643.22;;;3.76;100.00
2268;BME280;11052;43.338;25.502;2023-12-07T04:50:52;100644.03;;;3.68;100.00
2268;BME280;11052;43.338;25.502;2023-12-07T04:53:19;100647.44;;;3.63;100.00
2268;BME280;11052;43.338;25.502;2023-12-07T04:55:47;100651.75;;;3.74;100.00
2268;BME280;11052;43.338;25.502;2023-12-07T04:58:15;100654.28;;;3.61;100.00
2268;BME280;11052;43.338;25.502;2023-12-07T05:00:43;100646.59;;;3.69;100.00
2268;BME280;11052;43.338;25.502;2023-12-07T05:03:11;100647.47;;;3.70;100.00
2268;BME280;11052;43.338;25.502;2023-12-07T05:05:39;100647.47;;;3.68;100.00
2268;BME280;11052;43.338;25.502;2023-12-07T05:08:06;100648.31;;;3.67;100.00
2268;BME280;11052;43.338;25.502;2023-12-07T05:10:34;100653.44;;;3.66;100.00
2268;BME280;11052;43.338;25.502;2023-12-07T05:13:01;100656.88;;;3.71;100.00
2268;BME280;11052;43.338;25.502;2023-12-07T05:15:28;100656.84;;;3.68;100.00
2268;BME280;11052;43.338;25.502;2023-12-07T05:17:55;100654.28;;;3.66;100.00
2268;BME280;11052;43.338;25.502;2023-12-07T05:20:24;100664.53;;;3.61;100.00
2268;BME280;11052;43.338;25.502;2023-12-07T05:22:53;100658.56;;;3.66;100.00
2268;BME280;11052;43.338;25.502;2023-12-07T05:25:20;100664.50;;;3.58;100.00
2268;BME280;11052;43.338;25.502;2023-12-07T05:27:48;100661.94;;;3.58;100.00
2268;BME280;11052;43.338;25.502;2023-12-07T05:30:15;100670.47;;;3.56;100.00
2268;BME280;11052;43.338;25.502;2023-12-07T05:32:43;100674.78;;;3.61;100.00
2268;BME280;11052;43.338;25.502;2023-12-07T05:35:10;100682.44;;;3.58;100.00
2268;BME280;11052;43.338;25.502;2023-12-07T05:37:39;100685.06;;;3.69;100.00
2268;BME280;11052;43.338;25.502;2023-12-07T05:40:07;100688.47;;;3.68;100.00
2268;BME280;11052;43.338;25.502;2023-12-07T05:42:35;100686.81;;;3.78;100.00
2268;BME280;11052;43.338;25.502;2023-12-07T05:45:02;100685.09;;;3.74;100.00
2268;BME280;11052;43.338;25.502;2023-12-07T05:47:32;100679.97;;;3.74;100.00
2268;BME280;11052;43.338;25.502;2023-12-07T05:49:59;100684.22;;;3.73;100.00
2268;BME280;11052;43.338;25.502;2023-12-07T05:52:28;100685.94;;;3.76;100.00
2268;BME280;11052;43.338;25.502;2023-12-07T05:54:57;100688.53;;;3.80;100.00
2268;BME280;11052;43.338;25.502;2023-12-07T05:57:24;100697.09;;;3.88;100.00
2268;BME280;11052;43.338;25.502;2023-12-07T05:59:52;100702.25;;;3.93;100.00
2268;BME280;11052;43.338;25.502;2023-12-07T06:02:19;100701.38;;;3.91;100.00
2268;BME280;11052;43.338;25.502;2023-12-07T06:04:46;100709.94;;;3.93;100.00
2268;BME280;11052;43.338;25.502;2023-12-07T06:07:14;100715.09;;;3.96;100.00
2268;BME280;11052;43.338;25.502;2023-12-07T06:09:41;100712.50;;;3.91;100.00
2268;BME280;11052;43.338;25.502;2023-12-07T06:12:10;100713.34;;;3.87;100.00
2268;BME280;11052;43.338;25.502;2023-12-07T06:14:37;100707.34;;;3.81;100.00
2268;BME280;11052;43.338;25.502;2023-12-07T06:17:05;100709.03;;;3.79;100.00
2268;BME280;11052;43.338;25.502;2023-12-07T06:19:33;100710.72;;;3.74;100.00
2268;BME280;11052;43.338;25.502;2023-12-07T06:22:01;100710.66;;;3.58;100.00
2268;BME280;11052;43.338;25.502;2023-12-07T06:24:28;100719.13;;;3.42;100.00
2268;BME280;11052;43.338;25.502;2023-12-07T06:26:55;100726.81;;;3.44;100.00
2268;BME280;11052;43.338;25.502;2023-12-07T06:29:24;100725.97;;;3.49;100.00
2268;BME280;11052;43.338;25.502;2023-12-07T06:31:52;100731.91;;;3.35;100.00
2268;BME280;11052;43.338;25.502;2023-12-07T06:34:19;100732.81;;;3.50;100.00
2268;BME280;11052;43.338;25.502;2023-12-07T06:36:46;100740.47;;;3.38;100.00
2268;BME280;11052;43.338;25.502;2023-12-07T06:39:14;100739.63;;;3.41;100.00
2268;BME280;11052;43.338;25.502;2023-12-07T06:41:41;100736.22;;;3.42;100.00
2268;BME280;11052;43.338;25.502;2023-12-07T06:44:09;100731.94;;;3.48;100.00
2268;BME280;11052;43.338;25.502;2023-12-07T06:46:37;100734.53;;;3.50;100.00
2268;BME280;11052;43.338;25.502;2023-12-07T06:49:05;100728.56;;;3.46;100.00
2268;BME280;11052;43.338;25.502;2023-12-07T06:51:32;100736.25;;;3.46;100.00
2268;BME280;11052;43.338;25.502;2023-12-07T06:53:58;100734.53;;;3.45;100.00
2268;BME280;11052;43.338;25.502;2023-12-07T06:56:26;100747.31;;;3.42;100.00
2268;BME280;11052;43.338;25.502;2023-12-07T06:58:53;100748.19;;;3.43;100.00
2268;BME280;11052;43.338;25.502;2023-12-07T07:01:20;100746.44;;;3.40;100.00
2268;BME280;11052;43.338;25.502;2023-12-07T07:03:49;100751.56;;;3.40;100.00
2268;BME280;11052;43.338;25.502;2023-12-07T07:06:16;100754.97;;;3.36;100.00
2268;BME280;11052;43.338;25.502;2023-12-07T07:08:43;100754.97;;;3.39;100.00
2268;BME280;11052;43.338;25.502;2023-12-07T07:11:12;100759.25;;;3.40;100.00
2268;BME280;11052;43.338;25.502;2023-12-07T07:13:40;100755.88;;;3.49;100.00
2268;BME280;11052;43.338;25.502;2023-12-07T07:16:08;100750.75;;;3.44;100.00
2268;BME280;11052;43.338;25.502;2023-12-07T07:18:37;100752.44;;;3.44;100.00
2268;BME280;11052;43.338;25.502;2023-12-07T07:21:06;100752.44;;;3.47;100.00
2268;BME280;11052;43.338;25.502;2023-12-07T07:23:35;100758.41;;;3.41;100.00
2268;BME280;11052;43.338;25.502;2023-12-07T07:26:03;100757.53;;;3.36;100.00
2268;BME280;11052;43.338;25.502;2023-12-07T07:28:31;100761.75;;;3.28;100.00
2268;BME280;11052;43.338;25.502;2023-12-07T07:30:58;100762.59;;;3.30;100.00
2268;BME280;11052;43.338;25.502;2023-12-07T07:33:25;100767.75;;;3.32;100.00
2268;BME280;11052;43.338;25.502;2023-12-07T07:35:53;100768.59;;;3.29;100.00
2268;BME280;11052;43.338;25.502;2023-12-07T07:38:22;100770.38;;;3.39;100.00
2268;BME280;11052;43.338;25.502;2023-12-07T07:40:49;100771.22;;;3.41;100.00
2268;BME280;11052;43.338;25.502;2023-12-07T07:43:17;100778.06;;;3.44;100.00
2268;BME280;11052;43.338;25.502;2023-12-07T07:45:44;100778.91;;;3.40;100.00
2268;BME280;11052;43.338;25.502;2023-12-07T07:48:12;100777.19;;;3.40;100.00
2268;BME280;11052;43.338;25.502;2023-12-07T07:50:39;100786.53;;;3.31;100.00
2268;BME280;11052;43.338;25.502;2023-12-07T07:53:06;100788.28;;;3.36;100.00
2268;BME280;11052;43.338;25.502;2023-12-07T07:55:36;100782.31;;;3.40;100.00
2268;BME280;11052;43.338;25.502;2023-12-07T07:58:03;100789.22;;;3.56;100.00
2268;BME280;11052;43.338;25.502;2023-12-07T08:00:30;100791.78;;;3.55;100.00
2268;BME280;11052;43.338;25.502;2023-12-07T08:02:58;100794.44;;;3.69;100.00
2268;BME280;11052;43.338;25.502;2023-12-07T08:05:26;100791.91;;;3.72;100.00
2268;BME280;11052;43.338;25.502;2023-12-07T08:07:53;100798.69;;;3.63;100.00
2268;BME280;11052;43.338;25.502;2023-12-07T08:10:20;100787.53;;;3.55;100.00
2268;BME280;11052;43.338;25.502;2023-12-07T08:12:49;100796.06;;;3.57;100.00
2268;BME280;11052;43.338;25.502;2023-12-07T08:15:16;100799.50;;;3.59;100.00
2268;BME280;11052;43.338;25.502;2023-12-07T08:17:44;100797.78;;;3.58;100.00
2268;BME280;11052;43.338;25.502;2023-12-07T08:20:11;100807.25;;;3.69;100.00
2268;BME280;11052;43.338;25.502;2023-12-07T08:22:40;100800.44;;;3.69;100.00
2268;BME280;11052;43.338;25.502;2023-12-07T08:25:08;100808.06;;;3.63;100.00
2268;BME280;11052;43.338;25.502;2023-12-07T08:27:36;100810.69;;;3.69;100.00
2268;BME280;11052;43.338;25.502;2023-12-07T08:30:06;100814.13;;;3.74;100.00
2268;BME280;11052;43.338;25.502;2023-12-07T08:32:35;100808.09;;;3.65;100.00
2268;BME280;11052;43.338;25.502;2023-12-07T08:35:03;100808.94;;;3.65;100.00
2268;BME280;11052;43.338;25.502;2023-12-07T08:37:31;100811.50;;;3.65;100.00
2268;BME280;11052;43.338;25.502;2023-12-07T08:39:58;100812.38;;;3.67;100.00
2268;BME280;11052;43.338;25.502;2023-12-07T08:42:26;100813.22;;;3.68;100.00
2268;BME280;11052;43.338;25.502;2023-12-07T08:44:53;100815.00;;;3.75;100.00
2268;BME280;11052;43.338;25.502;2023-12-07T08:47:22;100816.69;;;3.74;100.00
2268;BME280;11052;43.338;25.502;2023-12-07T08:49:49;100819.25;;;3.73;100.00
2268;BME280;11052;43.338;25.502;2023-12-07T08:52:16;100809.78;;;3.62;100.00
2268;BME280;11052;43.338;25.502;2023-12-07T08:54:44;100814.94;;;3.69;100.00
2268;BME280;11052;43.338;25.502;2023-12-07T08:57:12;100802.97;;;3.68;100.00
2268;BME280;11052;43.338;25.502;2023-12-07T08:59:39;100806.41;;;3.70;100.00
2268;BME280;11052;43.338;25.502;2023-12-07T09:02:06;100808.19;;;3.83;100.00
2268;BME280;11052;43.338;25.502;2023-12-07T09:04:35;100805.63;;;3.80;100.00
2268;BME280;11052;43.338;25.502;2023-12-07T09:07:03;100809.03;;;3.80;100.00
2268;BME280;11052;43.338;25.502;2023-12-07T09:09:30;100813.28;;;3.78;100.00
2268;BME280;11052;43.338;25.502;2023-12-07T09:11:57;100811.59;;;3.82;100.00
2268;BME280;11052;43.338;25.502;2023-12-07T09:14:25;100820.19;;;3.87;100.00
2268;BME280;11052;43.338;25.502;2023-12-07T09:16:52;100821.00;;;3.81;100.00
2268;BME280;11052;43.338;25.502;2023-12-07T09:19:20;100821.03;;;3.83;100.00
2268;BME280;11052;43.338;25.502;2023-12-07T09:21:49;100826.16;;;3.87;100.00
2268;BME280;11052;43.338;25.502;2023-12-07T09:24:16;100815.88;;;3.83;100.00
2268;BME280;11052;43.338;25.502;2023-12-07T09:26:43;100816.75;;;3.85;100.00
2268;BME280;11052;43.338;25.502;2023-12-07T09:29:11;100809.13;;;3.97;100.00
2268;BME280;11052;43.338;25.502;2023-12-07T09:31:38;100818.47;;;3.86;100.00
2268;BME280;11052;43.338;25.502;2023-12-07T09:34:05;100803.88;;;3.77;100.00
2268;BME280;11052;43.338;25.502;2023-12-07T09:36:34;100811.63;;;3.85;100.00
2268;BME280;11052;43.338;25.502;2023-12-07T09:39:02;100803.09;;;3.89;100.00
2268;BME280;11052;43.338;25.502;2023-12-07T09:41:30;100795.38;;;3.86;100.00
2268;BME280;11052;43.338;25.502;2023-12-07T09:43:57;100804.81;;;3.91;100.00
2268;BME280;11052;43.338;25.502;2023-12-07T09:46:26;100811.72;;;4.03;100.00
2268;BME280;11052;43.338;25.502;2023-12-07T09:48:54;100810.78;;;3.87;100.00
2268;BME280;11052;43.338;25.502;2023-12-07T09:51:22;100803.97;;;3.92;100.00
2268;BME280;11052;43.338;25.502;2023-12-07T09:53:50;100806.56;;;3.97;100.00
2268;BME280;11052;43.338;25.502;2023-12-07T09:56:21;100795.53;;;4.12;100.00
2268;BME280;11052;43.338;25.502;2023-12-07T09:58:48;100798.03;;;4.03;100.00
2268;BME280;11052;43.338;25.502;2023-12-07T10:01:16;100792.00;;;3.91;100.00
2268;BME280;11052;43.338;25.502;2023-12-07T10:03:43;100795.44;;;3.95;100.00
2268;BME280;11052;43.338;25.502;2023-12-07T10:06:12;100793.72;;;3.94;100.00
2268;BME280;11052;43.338;25.502;2023-12-07T10:08:39;100792.94;;;4.07;100.00
2268;BME280;11052;43.338;25.502;2023-12-07T10:11:08;100786.94;;;4.07;100.00
2268;BME280;11052;43.338;25.502;2023-12-07T10:13:37;100786.16;;;4.20;100.00
2268;BME280;11052;43.338;25.502;2023-12-07T10:16:09;100792.97;;;4.19;100.00
2268;BME280;11052;43.338;25.502;2023-12-07T10:18:37;100793.84;;;4.20;100.00
2268;BME280;11052;43.338;25.502;2023-12-07T10:21:07;100790.44;;;4.24;100.00
2268;BME280;11052;43.338;25.502;2023-12-07T10:23:35;100791.22;;;4.08;100.00
2268;BME280;11052;43.338;25.502;2023-12-07T10:26:03;100790.34;;;4.00;100.00
2268;BME280;11052;43.338;25.502;2023-12-07T10:28:34;100786.91;;;3.99;100.00
2268;BME280;11052;43.338;25.502;2023-12-07T10:31:08;100780.13;;;4.10;100.00
2268;BME280;11052;43.338;25.502;2023-12-07T10:33:36;100776.69;;;4.11;100.00
2268;BME280;11052;43.338;25.502;2023-12-07T10:36:03;100772.50;;;4.28;100.00
2268;BME280;11052;43.338;25.502;2023-12-07T10:38:32;100780.19;;;4.27;100.00
2268;BME280;11052;43.338;25.502;2023-12-07T10:41:05;100789.56;;;4.23;100.00
2268;BME280;11052;43.338;25.502;2023-12-07T10:43:37;100775.88;;;4.21;100.00
2268;BME280;11052;43.338;25.502;2023-12-07T10:46:07;100783.59;;;4.21;100.00
2268;BME280;11052;43.338;25.502;2023-12-07T10:48:36;100782.75;;;4.25;100.00
2268;BME280;11052;43.338;25.502;2023-12-07T10:51:06;100789.59;;;4.36;100.00
2268;BME280;11052;43.338;25.502;2023-12-07T10:53:40;100793.88;;;4.35;100.00
2268;BME280;11052;43.338;25.502;2023-12-07T10:56:11;100791.31;;;4.41;100.00
2268;BME280;11052;43.338;25.502;2023-12-07T10:58:39;100791.34;;;4.49;100.00
2268;BME280;11052;43.338;25.502;2023-12-07T11:01:09;100787.91;;;4.44;100.00
2268;BME280;11052;43.338;25.502;2023-12-07T11:03:37;100781.94;;;4.49;100.00
2268;BME280;11052;43.338;25.502;2023-12-07T11:06:07;100781.94;;;4.48;100.00
2268;BME280;11052;43.338;25.502;2023-12-07T11:08:37;100780.22;;;4.48;100.00
2268;BME280;11052;43.338;25.502;2023-12-07T11:11:12;100777.66;;;4.47;100.00
2268;BME280;11052;43.338;25.502;2023-12-07T11:13:47;100774.22;;;4.42;100.00
2268;BME280;11052;43.338;25.502;2023-12-07T11:16:28;100774.19;;;4.37;100.00
2268;BME280;11052;43.338;25.502;2023-12-07T11:18:56;100773.34;;;4.37;100.00
2268;BME280;11052;43.338;25.502;2023-12-07T11:21:23;100779.31;;;4.36;100.00
2268;BME280;11052;43.338;25.502;2023-12-07T11:23:52;100781.91;;;4.39;100.00
2268;BME280;11052;43.338;25.502;2023-12-07T11:26:19;100781.91;;;4.33;100.00
2268;BME280;11052;43.338;25.502;2023-12-07T11:28:47;100783.59;;;4.29;100.00
2268;BME280;11052;43.338;25.502;2023-12-07T11:31:17;100779.34;;;4.30;100.00
2268;BME280;11052;43.338;25.502;2023-12-07T11:33:44;100781.03;;;4.21;100.00
2268;BME280;11052;43.338;25.502;2023-12-07T11:36:13;100775.88;;;4.17;100.00
2268;BME280;11052;43.338;25.502;2023-12-07T11:41:43;100776.75;;;4.26;100.00
2268;BME280;11052;43.338;25.502;2023-12-07T11:44:10;100786.16;;;4.34;100.00
2268;BME280;11052;43.338;25.502;2023-12-07T11:46:40;100790.44;;;4.28;100.00
2268;BME280;11052;43.338;25.502;2023-12-07T11:49:08;100781.88;;;4.23;100.00
2268;BME280;11052;43.338;25.502;2023-12-07T11:51:37;100781.03;;;4.23;100.00
2268;BME280;11052;43.338;25.502;2023-12-07T11:54:04;100787.88;;;4.30;100.00
2268;BME280;11052;43.338;25.502;2023-12-07T11:56:33;100786.97;;;4.10;100.00
2268;BME280;11052;43.338;25.502;2023-12-07T11:59:01;100785.25;;;4.12;100.00
2268;BME280;11052;43.338;25.502;2023-12-07T12:01:28;100781.84;;;4.14;100.00
2268;BME280;11052;43.338;25.502;2023-12-07T12:03:58;100776.72;;;4.19;100.00
2268;BME280;11052;43.338;25.502;2023-12-07T12:06:26;100786.16;;;4.23;100.00
2268;BME280;11052;43.338;25.502;2023-12-07T12:08:56;100784.41;;;4.11;100.00
2268;BME280;11052;43.338;25.502;2023-12-07T12:11:23;100785.25;;;4.12;100.00
2268;BME280;11052;43.338;25.502;2023-12-07T12:13:50;100786.97;;;4.11;100.00
2268;BME280;11052;43.338;25.502;2023-12-07T12:16:17;100781.88;;;4.20;100.00
2268;BME280;11052;43.338;25.502;2023-12-07T12:18:45;100775.88;;;4.21;100.00
2268;BME280;11052;43.338;25.502;2023-12-07T12:21:14;100777.56;;;4.16;100.00
2268;BME280;11052;43.338;25.502;2023-12-07T12:23:41;100780.16;;;4.18;100.00
2268;BME280;11052;43.338;25.502;2023-12-07T12:26:09;100775.00;;;4.15;100.00
2268;BME280;11052;43.338;25.502;2023-12-07T12:28:37;100778.44;;;4.20;100.00
2268;BME280;11052;43.338;25.502;2023-12-07T12:31:09;100775.88;;;4.17;100.00
2268;BME280;11052;43.338;25.502;2023-12-07T12:33:37;100769.03;;;4.16;100.00
2268;BME280;11052;43.338;25.502;2023-12-07T12:36:06;100776.69;;;4.05;100.00
2268;BME280;11052;43.338;25.502;2023-12-07T12:38:37;100777.53;;;4.03;100.00
2268;BME280;11052;43.338;25.502;2023-12-07T12:41:06;100777.47;;;3.89;100.00
2268;BME280;11052;43.338;25.502;2023-12-07T12:43:34;100780.88;;;3.88;100.00
2268;BME280;11052;43.338;25.502;2023-12-07T12:46:01;100775.69;;;3.79;100.00
2268;BME280;11052;43.338;25.502;2023-12-07T12:48:29;100781.69;;;3.79;100.00
2268;BME280;11052;43.338;25.502;2023-12-07T12:50:55;100790.25;;;3.84;100.00
2268;BME280;11052;43.338;25.502;2023-12-07T12:53:22;100793.72;;;3.92;100.00
2268;BME280;11052;43.338;25.502;2023-12-07T12:55:52;100798.84;;;3.94;100.00
2268;BME280;11052;43.338;25.502;2023-12-07T12:58:19;100787.72;;;3.90;100.00